sensor_id;sensor_type;location;lat;lon;timestamp;temperature;humidity
25628;DHT22;40915;50.826;4.356;2022-09-27T00:02:16;10.20;99.90
25628;DHT22;40915;50.826;4.356;2022-09-27T00:04:41;10.20;99.90
25628;DHT22;40915;50.826;4.356;2022-09-27T00:07:07;10.10;99.90
25628;DHT22;40915;50.826;4.356;2022-09-27T00:09:34;10.10;99.90
25628;DHT22;40915;50.826;4.356;2022-09-27T00:12:00;10.10;99.90
25628;DHT22;40915;50.826;4.356;2022-09-27T00:14:26;10.10;99.90
25628;DHT22;40915;50.826;4.356;2022-09-27T00:16:51;10.10;99.90
25628;DHT22;40915;50.826;4.356;2022-09-27T00:19:19;10.10;99.90
25628;DHT22;40915;50.826;4.356;2022-09-27T00:21:46;10.10;99.90
25628;DHT22;40915;50.826;4.356;2022-09-27T00:24:14;10.10;99.90
25628;DHT22;40915;50.826;4.356;2022-09-27T00:26:40;10.10;99.90
25628;DHT22;40915;50.826;4.356;2022-09-27T00:29:06;10.10;99.90
25628;DHT22;40915;50.826;4.356;2022-09-27T00:31:32;10.10;99.90
25628;DHT22;40915;50.826;4.356;2022-09-27T00:34:00;10.10;99.90
25628;DHT22;40915;50.826;4.356;2022-09-27T00:36:27;10.10;99.90
25628;DHT22;40915;50.826;4.356;2022-09-27T00:38:54;10.10;99.90
25628;DHT22;40915;50.826;4.356;2022-09-27T00:41:22;10.00;99.90
25628;DHT22;40915;50.826;4.356;2022-09-27T00:43:51;10.00;99.90
25628;DHT22;40915;50.826;4.356;2022-09-27T00:46:30;10.00;99.90
25628;DHT22;40915;50.826;4.356;2022-09-27T00:49:06;10.00;99.90
25628;DHT22;40915;50.826;4.356;2022-09-27T00:51:33;10.00;99.90
25628;DHT22;40915;50.826;4.356;2022-09-27T00:54:00;10.00;99.90
25628;DHT22;40915;50.826;4.356;2022-09-27T00:56:28;10.00;99.90
25628;DHT22;40915;50.826;4.356;2022-09-27T00:59:02;10.00;99.90
25628;DHT22;40915;50.826;4.356;2022-09-27T01:01:30;10.00;99.90
25628;DHT22;40915;50.826;4.356;2022-09-27T01:04:09;10.00;99.90
25628;DHT22;40915;50.826;4.356;2022-09-27T01:06:35;10.10;99.90
25628;DHT22;40915;50.826;4.356;2022-09-27T01:09:06;10.00;99.90
25628;DHT22;40915;50.826;4.356;2022-09-27T01:34:26;9.90;99.90
25628;DHT22;40915;50.826;4.356;2022-09-27T01:47:39;9.90;99.90
25628;DHT22;40915;50.826;4.356;2022-09-27T01:50:15;9.90;99.90
25628;DHT22;40915;50.826;4.356;2022-09-27T01:52:48;9.90;99.90
25628;DHT22;40915;50.826;4.356;2022-09-27T01:55:17;9.90;99.90
25628;DHT22;40915;50.826;4.356;2022-09-27T01:57:50;9.90;99.90
25628;DHT22;40915;50.826;4.356;2022-09-27T02:00:19;9.90;99.90
25628;DHT22;40915;50.826;4.356;2022-09-27T02:05:17;9.80;99.90
25628;DHT22;40915;50.826;4.356;2022-09-27T02:07:51;9.80;99.90
25628;DHT22;40915;50.826;4.356;2022-09-27T02:10:21;9.80;99.90
25628;DHT22;40915;50.826;4.356;2022-09-27T02:12:52;9.80;99.90
25628;DHT22;40915;50.826;4.356;2022-09-27T02:15:22;9.80;99.90
25628;DHT22;40915;50.826;4.356;2022-09-27T02:18:09;9.80;99.90
25628;DHT22;40915;50.826;4.356;2022-09-27T02:20:40;9.80;99.90
25628;DHT22;40915;50.826;4.356;2022-09-27T02:23:35;9.80;99.90
25628;DHT22;40915;50.826;4.356;2022-09-27T02:26:19;9.80;99.90
25628;DHT22;40915;50.826;4.356;2022-09-27T02:29:08;9.80;99.90
25628;DHT22;40915;50.826;4.356;2022-09-27T02:31:35;9.80;99.90
25628;DHT22;40915;50.826;4.356;2022-09-27T02:34:10;9.80;99.90
25628;DHT22;40915;50.826;4.356;2022-09-27T02:36:37;9.80;99.90
25628;DHT22;40915;50.826;4.356;2022-09-27T02:39:03;9.70;99.90
25628;DHT22;40915;50.826;4.356;2022-09-27T02:41:29;9.80;99.90
25628;DHT22;40915;50.826;4.356;2022-09-27T02:44:04;9.80;99.90
25628;DHT22;40915;50.826;4.356;2022-09-27T02:57:39;9.60;99.90
25628;DHT22;40915;50.826;4.356;2022-09-27T03:00:10;9.60;99.90
25628;DHT22;40915;50.826;4.356;2022-09-27T03:02:50;9.60;99.90
25628;DHT22;40915;50.826;4.356;2022-09-27T03:05:20;9.60;99.90
25628;DHT22;40915;50.826;4.356;2022-09-27T03:07:48;9.70;99.90
25628;DHT22;40915;50.826;4.356;2022-09-27T03:10:23;9.70;99.90
25628;DHT22;40915;50.826;4.356;2022-09-27T03:12:49;9.60;99.90
25628;DHT22;40915;50.826;4.356;2022-09-27T03:15:15;9.60;99.90
25628;DHT22;40915;50.826;4.356;2022-09-27T03:17:42;9.60;99.90
25628;DHT22;40915;50.826;4.356;2022-09-27T03:20:08;9.60;99.90
25628;DHT22;40915;50.826;4.356;2022-09-27T03:22:34;9.60;99.90
25628;DHT22;40915;50.826;4.356;2022-09-27T03:25:00;9.70;99.90
25628;DHT22;40915;50.826;4.356;2022-09-27T03:27:26;9.70;99.90
25628;DHT22;40915;50.826;4.356;2022-09-27T03:29:51;9.70;99.90
25628;DHT22;40915;50.826;4.356;2022-09-27T03:32:17;9.70;99.90
25628;DHT22;40915;50.826;4.356;2022-09-27T03:34:43;9.70;99.90
25628;DHT22;40915;50.826;4.356;2022-09-27T03:37:09;9.70;99.90
25628;DHT22;40915;50.826;4.356;2022-09-27T03:39:35;9.70;99.90
25628;DHT22;40915;50.826;4.356;2022-09-27T03:42:00;9.70;99.90
25628;DHT22;40915;50.826;4.356;2022-09-27T03:44:26;9.70;99.90
25628;DHT22;40915;50.826;4.356;2022-09-27T03:46:52;9.70;99.90
25628;DHT22;40915;50.826;4.356;2022-09-27T03:49:17;9.70;99.90
25628;DHT22;40915;50.826;4.356;2022-09-27T03:51:43;9.70;99.90
25628;DHT22;40915;50.826;4.356;2022-09-27T03:54:09;9.70;99.90
25628;DHT22;40915;50.826;4.356;2022-09-27T03:56:34;9.60;99.90
25628;DHT22;40915;50.826;4.356;2022-09-27T03:59:00;9.60;99.90
25628;DHT22;40915;50.826;4.356;2022-09-27T04:01:26;9.70;99.90
25628;DHT22;40915;50.826;4.356;2022-09-27T04:03:53;9.70;99.90
25628;DHT22;40915;50.826;4.356;2022-09-27T04:06:18;9.70;99.90
25628;DHT22;40915;50.826;4.356;2022-09-27T04:08:45;9.70;99.90
25628;DHT22;40915;50.826;4.356;2022-09-27T04:11:12;9.70;99.90
25628;DHT22;40915;50.826;4.356;2022-09-27T04:13:39;9.70;99.90
25628;DHT22;40915;50.826;4.356;2022-09-27T04:16:05;9.70;99.90
25628;DHT22;40915;50.826;4.356;2022-09-27T04:18:32;9.70;99.90
25628;DHT22;40915;50.826;4.356;2022-09-27T04:20:58;9.70;99.90
25628;DHT22;40915;50.826;4.356;2022-09-27T04:23:23;9.70;99.90
25628;DHT22;40915;50.826;4.356;2022-09-27T04:25:49;9.70;99.90
25628;DHT22;40915;50.826;4.356;2022-09-27T04:28:15;9.70;99.90
25628;DHT22;40915;50.826;4.356;2022-09-27T04:30:40;9.70;99.90
25628;DHT22;40915;50.826;4.356;2022-09-27T04:33:06;9.70;99.90
25628;DHT22;40915;50.826;4.356;2022-09-27T04:35:32;9.80;99.90
25628;DHT22;40915;50.826;4.356;2022-09-27T04:38:16;9.70;99.90
25628;DHT22;40915;50.826;4.356;2022-09-27T04:40:44;9.70;99.90
25628;DHT22;40915;50.826;4.356;2022-09-27T04:43:10;9.70;99.90
25628;DHT22;40915;50.826;4.356;2022-09-27T04:45:35;9.60;99.90
25628;DHT22;40915;50.826;4.356;2022-09-27T04:48:01;9.70;99.90
25628;DHT22;40915;50.826;4.356;2022-09-27T04:50:26;9.70;99.90
25628;DHT22;40915;50.826;4.356;2022-09-27T04:52:53;9.70;99.90
25628;DHT22;40915;50.826;4.356;2022-09-27T04:55:20;9.70;99.90
25628;DHT22;40915;50.826;4.356;2022-09-27T04:57:47;9.70;99.90
25628;DHT22;40915;50.826;4.356;2022-09-27T05:00:13;9.70;99.90
25628;DHT22;40915;50.826;4.356;2022-09-27T05:02:39;9.60;99.90
25628;DHT22;40915;50.826;4.356;2022-09-27T05:05:06;9.60;99.90
25628;DHT22;40915;50.826;4.356;2022-09-27T05:07:33;9.60;99.90
25628;DHT22;40915;50.826;4.356;2022-09-27T05:09:59;9.60;99.90
25628;DHT22;40915;50.826;4.356;2022-09-27T05:12:25;9.60;99.90
25628;DHT22;40915;50.826;4.356;2022-09-27T05:14:52;9.60;99.90
25628;DHT22;40915;50.826;4.356;2022-09-27T05:17:18;9.60;99.90
25628;DHT22;40915;50.826;4.356;2022-09-27T05:19:45;9.60;99.90
25628;DHT22;40915;50.826;4.356;2022-09-27T05:22:10;9.60;99.90
25628;DHT22;40915;50.826;4.356;2022-09-27T05:24:36;9.60;99.90
25628;DHT22;40915;50.826;4.356;2022-09-27T05:27:03;9.60;99.90
25628;DHT22;40915;50.826;4.356;2022-09-27T05:29:32;9.60;99.90
25628;DHT22;40915;50.826;4.356;2022-09-27T05:31:59;9.60;99.90
25628;DHT22;40915;50.826;4.356;2022-09-27T05:34:25;9.60;99.90
25628;DHT22;40915;50.826;4.356;2022-09-27T05:36:51;9.50;99.90
25628;DHT22;40915;50.826;4.356;2022-09-27T05:39:16;9.60;99.90
25628;DHT22;40915;50.826;4.356;2022-09-27T05:41:43;9.50;99.90
25628;DHT22;40915;50.826;4.356;2022-09-27T05:44:08;9.50;99.90
25628;DHT22;40915;50.826;4.356;2022-09-27T05:46:34;9.50;99.90
25628;DHT22;40915;50.826;4.356;2022-09-27T05:49:00;9.50;99.90
25628;DHT22;40915;50.826;4.356;2022-09-27T05:51:25;9.50;99.90
25628;DHT22;40915;50.826;4.356;2022-09-27T05:53:51;9.40;99.90
25628;DHT22;40915;50.826;4.356;2022-09-27T05:56:17;9.50;99.90
25628;DHT22;40915;50.826;4.356;2022-09-27T05:58:43;9.50;99.90
25628;DHT22;40915;50.826;4.356;2022-09-27T06:01:09;9.50;99.90
25628;DHT22;40915;50.826;4.356;2022-09-27T06:03:35;9.50;99.90
25628;DHT22;40915;50.826;4.356;2022-09-27T06:06:02;9.50;99.90
25628;DHT22;40915;50.826;4.356;2022-09-27T06:08:38;9.50;99.90
25628;DHT22;40915;50.826;4.356;2022-09-27T06:11:09;9.60;99.90
25628;DHT22;40915;50.826;4.356;2022-09-27T06:13:37;9.50;99.90
25628;DHT22;40915;50.826;4.356;2022-09-27T06:16:04;9.50;99.90
25628;DHT22;40915;50.826;4.356;2022-09-27T06:18:31;9.50;99.90
25628;DHT22;40915;50.826;4.356;2022-09-27T06:21:00;9.60;99.90
25628;DHT22;40915;50.826;4.356;2022-09-27T06:23:27;9.60;99.90
25628;DHT22;40915;50.826;4.356;2022-09-27T06:25:53;9.60;99.90
25628;DHT22;40915;50.826;4.356;2022-09-27T06:28:20;9.60;99.90
25628;DHT22;40915;50.826;4.356;2022-09-27T06:30:49;9.50;99.90
25628;DHT22;40915;50.826;4.356;2022-09-27T06:33:18;9.50;99.90
25628;DHT22;40915;50.826;4.356;2022-09-27T06:35:44;9.50;99.90
25628;DHT22;40915;50.826;4.356;2022-09-27T06:38:12;9.50;99.90
25628;DHT22;40915;50.826;4.356;2022-09-27T06:40:38;9.60;99.90
25628;DHT22;40915;50.826;4.356;2022-09-27T06:43:06;9.60;99.90
25628;DHT22;40915;50.826;4.356;2022-09-27T06:45:36;9.60;99.90
25628;DHT22;40915;50.826;4.356;2022-09-27T06:48:03;9.60;99.90
25628;DHT22;40915;50.826;4.356;2022-09-27T06:50:31;9.60;99.90
25628;DHT22;40915;50.826;4.356;2022-09-27T06:52:58;9.70;99.90
25628;DHT22;40915;50.826;4.356;2022-09-27T06:55:24;9.70;99.90
25628;DHT22;40915;50.826;4.356;2022-09-27T06:57:53;9.80;99.90
25628;DHT22;40915;50.826;4.356;2022-09-27T07:00:38;9.80;99.90
25628;DHT22;40915;50.826;4.356;2022-09-27T07:03:04;9.90;99.90
25628;DHT22;40915;50.826;4.356;2022-09-27T07:05:30;9.90;99.90
25628;DHT22;40915;50.826;4.356;2022-09-27T07:07:56;9.90;99.90
25628;DHT22;40915;50.826;4.356;2022-09-27T07:10:27;9.90;99.90
25628;DHT22;40915;50.826;4.356;2022-09-27T07:12:54;9.90;99.90
25628;DHT22;40915;50.826;4.356;2022-09-27T07:15:21;9.90;99.90
25628;DHT22;40915;50.826;4.356;2022-09-27T07:17:58;9.90;99.90
25628;DHT22;40915;50.826;4.356;2022-09-27T07:20:25;10.00;99.90
25628;DHT22;40915;50.826;4.356;2022-09-27T07:22:54;10.00;99.90
25628;DHT22;40915;50.826;4.356;2022-09-27T07:25:20;10.10;99.90
25628;DHT22;40915;50.826;4.356;2022-09-27T07:27:46;10.10;99.90
25628;DHT22;40915;50.826;4.356;2022-09-27T07:30:13;10.10;99.90
25628;DHT22;40915;50.826;4.356;2022-09-27T07:32:39;10.00;99.90
25628;DHT22;40915;50.826;4.356;2022-09-27T07:35:06;10.10;99.90
25628;DHT22;40915;50.826;4.356;2022-09-27T07:37:36;10.10;99.90
25628;DHT22;40915;50.826;4.356;2022-09-27T07:40:04;10.10;99.90
25628;DHT22;40915;50.826;4.356;2022-09-27T07:42:36;10.20;99.90
25628;DHT22;40915;50.826;4.356;2022-09-27T07:45:07;10.20;99.90
25628;DHT22;40915;50.826;4.356;2022-09-27T07:47:34;10.30;99.90
25628;DHT22;40915;50.826;4.356;2022-09-27T07:50:00;10.20;99.90
25628;DHT22;40915;50.826;4.356;2022-09-27T07:52:26;10.10;99.90
25628;DHT22;40915;50.826;4.356;2022-09-27T07:54:52;10.10;99.90
25628;DHT22;40915;50.826;4.356;2022-09-27T07:57:21;10.00;99.90
25628;DHT22;40915;50.826;4.356;2022-09-27T07:59:49;9.90;99.90
25628;DHT22;40915;50.826;4.356;2022-09-27T08:02:16;10.00;99.90
25628;DHT22;40915;50.826;4.356;2022-09-27T08:04:42;10.00;99.90
25628;DHT22;40915;50.826;4.356;2022-09-27T08:07:09;10.00;99.90
25628;DHT22;40915;50.826;4.356;2022-09-27T08:09:35;10.00;99.90
25628;DHT22;40915;50.826;4.356;2022-09-27T08:12:01;10.10;99.90
25628;DHT22;40915;50.826;4.356;2022-09-27T08:14:29;10.30;99.90
25628;DHT22;40915;50.826;4.356;2022-09-27T08:16:54;10.40;99.90
25628;DHT22;40915;50.826;4.356;2022-09-27T08:19:20;10.50;99.90
25628;DHT22;40915;50.826;4.356;2022-09-27T08:21:46;10.60;99.90
25628;DHT22;40915;50.826;4.356;2022-09-27T08:24:12;10.70;99.90
25628;DHT22;40915;50.826;4.356;2022-09-27T08:26:38;10.80;99.90
25628;DHT22;40915;50.826;4.356;2022-09-27T08:29:04;10.80;99.90
25628;DHT22;40915;50.826;4.356;2022-09-27T08:31:29;10.90;99.90
25628;DHT22;40915;50.826;4.356;2022-09-27T08:33:55;10.90;99.90
25628;DHT22;40915;50.826;4.356;2022-09-27T08:36:22;10.80;99.90
25628;DHT22;40915;50.826;4.356;2022-09-27T08:38:52;10.80;99.90
25628;DHT22;40915;50.826;4.356;2022-09-27T08:44:39;10.70;99.90
25628;DHT22;40915;50.826;4.356;2022-09-27T08:47:16;10.60;99.90
25628;DHT22;40915;50.826;4.356;2022-09-27T08:50:00;10.60;99.90
25628;DHT22;40915;50.826;4.356;2022-09-27T08:52:39;10.60;99.90
25628;DHT22;40915;50.826;4.356;2022-09-27T08:55:35;10.50;99.90
25628;DHT22;40915;50.826;4.356;2022-09-27T08:58:08;10.50;99.90
25628;DHT22;40915;50.826;4.356;2022-09-27T09:00:35;10.50;99.90
25628;DHT22;40915;50.826;4.356;2022-09-27T09:03:01;10.50;99.90
25628;DHT22;40915;50.826;4.356;2022-09-27T09:05:34;10.60;99.90
25628;DHT22;40915;50.826;4.356;2022-09-27T09:10:57;10.50;99.90
25628;DHT22;40915;50.826;4.356;2022-09-27T09:16:40;10.40;99.90
25628;DHT22;40915;50.826;4.356;2022-09-27T09:27:24;10.20;99.90
25628;DHT22;40915;50.826;4.356;2022-09-27T09:35:41;10.20;99.90
25628;DHT22;40915;50.826;4.356;2022-09-27T09:38:42;10.40;99.90
25628;DHT22;40915;50.826;4.356;2022-09-27T09:41:20;10.60;99.90
25628;DHT22;40915;50.826;4.356;2022-09-27T09:44:33;10.80;99.90
25628;DHT22;40915;50.826;4.356;2022-09-27T09:46:41;10.90;99.90
25628;DHT22;40915;50.826;4.356;2022-09-27T09:49:18;11.10;99.90
25628;DHT22;40915;50.826;4.356;2022-09-27T09:51:52;11.20;99.90
25628;DHT22;40915;50.826;4.356;2022-09-27T09:57:11;11.50;99.90
25628;DHT22;40915;50.826;4.356;2022-09-27T09:59:42;11.50;99.90
25628;DHT22;40915;50.826;4.356;2022-09-27T10:02:37;11.60;99.90
25628;DHT22;40915;50.826;4.356;2022-09-27T10:05:04;11.60;99.90
25628;DHT22;40915;50.826;4.356;2022-09-27T10:07:32;11.70;99.90
25628;DHT22;40915;50.826;4.356;2022-09-27T10:10:00;11.80;99.90
25628;DHT22;40915;50.826;4.356;2022-09-27T10:12:27;11.90;99.90
25628;DHT22;40915;50.826;4.356;2022-09-27T10:14:56;11.90;99.90
25628;DHT22;40915;50.826;4.356;2022-09-27T10:17:25;12.00;99.90
25628;DHT22;40915;50.826;4.356;2022-09-27T10:19:52;12.20;99.90
25628;DHT22;40915;50.826;4.356;2022-09-27T10:25:18;12.30;99.90
25628;DHT22;40915;50.826;4.356;2022-09-27T10:27:46;12.30;99.90
25628;DHT22;40915;50.826;4.356;2022-09-27T10:32:59;12.30;99.90
25628;DHT22;40915;50.826;4.356;2022-09-27T10:35:36;12.40;99.90
25628;DHT22;40915;50.826;4.356;2022-09-27T10:38:20;12.40;99.90
25628;DHT22;40915;50.826;4.356;2022-09-27T10:40:47;12.50;99.90
25628;DHT22;40915;50.826;4.356;2022-09-27T10:43:30;12.60;99.90
25628;DHT22;40915;50.826;4.356;2022-09-27T10:48:30;12.60;99.90
25628;DHT22;40915;50.826;4.356;2022-09-27T10:51:04;12.60;99.90
25628;DHT22;40915;50.826;4.356;2022-09-27T10:53:32;12.60;99.90
25628;DHT22;40915;50.826;4.356;2022-09-27T10:55:59;12.60;99.90
25628;DHT22;40915;50.826;4.356;2022-09-27T10:58:34;12.70;99.90
25628;DHT22;40915;50.826;4.356;2022-09-27T11:01:07;12.60;99.90
25628;DHT22;40915;50.826;4.356;2022-09-27T11:03:44;12.50;99.90
25628;DHT22;40915;50.826;4.356;2022-09-27T11:08:52;12.70;99.90
25628;DHT22;40915;50.826;4.356;2022-09-27T11:11:20;12.90;99.90
25628;DHT22;40915;50.826;4.356;2022-09-27T11:14:03;13.00;99.90
25628;DHT22;40915;50.826;4.356;2022-09-27T11:27:08;12.20;99.90
25628;DHT22;40915;50.826;4.356;2022-09-27T11:29:44;12.20;99.90
25628;DHT22;40915;50.826;4.356;2022-09-27T11:32:29;12.30;99.90
25628;DHT22;40915;50.826;4.356;2022-09-27T11:37:50;12.70;99.90
25628;DHT22;40915;50.826;4.356;2022-09-27T11:40:38;12.80;99.90
25628;DHT22;40915;50.826;4.356;2022-09-27T11:43:31;12.90;99.90
25628;DHT22;40915;50.826;4.356;2022-09-27T11:46:19;13.00;99.90
25628;DHT22;40915;50.826;4.356;2022-09-27T11:51:46;13.00;99.90
25628;DHT22;40915;50.826;4.356;2022-09-27T11:57:12;13.00;99.90
25628;DHT22;40915;50.826;4.356;2022-09-27T12:02:51;12.60;99.90
25628;DHT22;40915;50.826;4.356;2022-09-27T12:05:29;12.40;99.90
25628;DHT22;40915;50.826;4.356;2022-09-27T12:10:45;12.20;99.90
25628;DHT22;40915;50.826;4.356;2022-09-27T12:13:13;12.20;99.90
25628;DHT22;40915;50.826;4.356;2022-09-27T12:15:42;12.30;99.90
25628;DHT22;40915;50.826;4.356;2022-09-27T12:18:26;12.40;99.90
25628;DHT22;40915;50.826;4.356;2022-09-27T12:20:54;12.50;99.90
25628;DHT22;40915;50.826;4.356;2022-09-27T12:25:57;12.80;99.90
25628;DHT22;40915;50.826;4.356;2022-09-27T12:28:54;12.80;99.90
25628;DHT22;40915;50.826;4.356;2022-09-27T12:31:28;12.80;99.90
25628;DHT22;40915;50.826;4.356;2022-09-27T12:34:00;12.90;99.90
25628;DHT22;40915;50.826;4.356;2022-09-27T12:36:33;13.00;99.90
25628;DHT22;40915;50.826;4.356;2022-09-27T12:39:20;13.10;99.90
25628;DHT22;40915;50.826;4.356;2022-09-27T12:42:12;13.10;99.90
25628;DHT22;40915;50.826;4.356;2022-09-27T12:44:40;13.10;99.90
25628;DHT22;40915;50.826;4.356;2022-09-27T12:47:12;13.10;99.90
25628;DHT22;40915;50.826;4.356;2022-09-27T12:50:11;13.10;99.90
25628;DHT22;40915;50.826;4.356;2022-09-27T12:52:44;13.10;99.90
25628;DHT22;40915;50.826;4.356;2022-09-27T12:55:18;13.20;99.90
25628;DHT22;40915;50.826;4.356;2022-09-27T13:01:03;12.80;99.90
25628;DHT22;40915;50.826;4.356;2022-09-27T13:11:47;12.10;99.90
25628;DHT22;40915;50.826;4.356;2022-09-27T13:14:25;12.10;99.90
25628;DHT22;40915;50.826;4.356;2022-09-27T13:16:52;12.20;99.90
25628;DHT22;40915;50.826;4.356;2022-09-27T13:19:41;12.30;99.90
25628;DHT22;40915;50.826;4.356;2022-09-27T13:22:37;12.50;99.90
25628;DHT22;40915;50.826;4.356;2022-09-27T13:30:53;13.10;99.90
25628;DHT22;40915;50.826;4.356;2022-09-27T13:39:02;13.20;99.90
25628;DHT22;40915;50.826;4.356;2022-09-27T13:47:14;13.00;99.90
25628;DHT22;40915;50.826;4.356;2022-09-27T13:49:43;13.00;99.90
25628;DHT22;40915;50.826;4.356;2022-09-27T13:55:00;13.20;99.90
25628;DHT22;40915;50.826;4.356;2022-09-27T14:00:30;13.40;99.90
25628;DHT22;40915;50.826;4.356;2022-09-27T14:03:00;13.60;99.90
25628;DHT22;40915;50.826;4.356;2022-09-27T14:05:35;13.80;99.90
25628;DHT22;40915;50.826;4.356;2022-09-27T14:08:03;14.00;99.90
25628;DHT22;40915;50.826;4.356;2022-09-27T14:10:29;14.00;99.90
25628;DHT22;40915;50.826;4.356;2022-09-27T14:12:58;14.10;99.90
25628;DHT22;40915;50.826;4.356;2022-09-27T14:15:27;14.00;99.90
25628;DHT22;40915;50.826;4.356;2022-09-27T14:17:54;14.00;99.90
25628;DHT22;40915;50.826;4.356;2022-09-27T14:20:37;13.90;99.90
25628;DHT22;40915;50.826;4.356;2022-09-27T14:23:05;13.90;99.90
25628;DHT22;40915;50.826;4.356;2022-09-27T14:25:31;13.90;99.90
25628;DHT22;40915;50.826;4.356;2022-09-27T14:27:57;13.90;99.90
25628;DHT22;40915;50.826;4.356;2022-09-27T14:30:27;13.90;99.90
25628;DHT22;40915;50.826;4.356;2022-09-27T14:32:54;13.90;99.90
25628;DHT22;40915;50.826;4.356;2022-09-27T14:35:25;13.80;99.90
25628;DHT22;40915;50.826;4.356;2022-09-27T14:38:16;13.80;99.90
25628;DHT22;40915;50.826;4.356;2022-09-27T14:41:00;13.80;99.90
25628;DHT22;40915;50.826;4.356;2022-09-27T14:43:26;13.80;99.90
25628;DHT22;40915;50.826;4.356;2022-09-27T14:45:58;13.90;99.90
25628;DHT22;40915;50.826;4.356;2022-09-27T14:48:38;13.80;99.90
25628;DHT22;40915;50.826;4.356;2022-09-27T14:51:19;13.60;99.90
25628;DHT22;40915;50.826;4.356;2022-09-27T14:53:48;13.40;99.90
25628;DHT22;40915;50.826;4.356;2022-09-27T14:56:17;13.10;99.90
25628;DHT22;40915;50.826;4.356;2022-09-27T14:58:44;12.70;99.90
25628;DHT22;40915;50.826;4.356;2022-09-27T15:01:17;12.50;99.90
25628;DHT22;40915;50.826;4.356;2022-09-27T15:03:45;12.40;99.90
25628;DHT22;40915;50.826;4.356;2022-09-27T15:06:14;12.30;99.90
25628;DHT22;40915;50.826;4.356;2022-09-27T15:08:40;12.30;99.90
25628;DHT22;40915;50.826;4.356;2022-09-27T15:11:07;12.30;99.90
25628;DHT22;40915;50.826;4.356;2022-09-27T15:13:35;12.30;99.90
25628;DHT22;40915;50.826;4.356;2022-09-27T15:16:09;12.30;99.90
25628;DHT22;40915;50.826;4.356;2022-09-27T15:18:44;12.30;99.90
25628;DHT22;40915;50.826;4.356;2022-09-27T15:21:32;12.20;99.90
25628;DHT22;40915;50.826;4.356;2022-09-27T15:23:58;12.30;99.90
25628;DHT22;40915;50.826;4.356;2022-09-27T15:26:45;12.40;99.90
25628;DHT22;40915;50.826;4.356;2022-09-27T15:29:37;12.40;99.90
25628;DHT22;40915;50.826;4.356;2022-09-27T15:32:05;12.60;99.90
25628;DHT22;40915;50.826;4.356;2022-09-27T15:34:32;12.70;99.90
25628;DHT22;40915;50.826;4.356;2022-09-27T15:37:02;12.80;99.90
25628;DHT22;40915;50.826;4.356;2022-09-27T15:44:50;13.20;99.90
25628;DHT22;40915;50.826;4.356;2022-09-27T15:47:48;13.20;99.90
25628;DHT22;40915;50.826;4.356;2022-09-27T15:52:42;13.10;99.90
25628;DHT22;40915;50.826;4.356;2022-09-27T15:55:12;13.10;99.90
25628;DHT22;40915;50.826;4.356;2022-09-27T15:57:38;13.10;99.90
25628;DHT22;40915;50.826;4.356;2022-09-27T16:00:05;13.00;99.90
25628;DHT22;40915;50.826;4.356;2022-09-27T16:02:31;13.10;99.90
25628;DHT22;40915;50.826;4.356;2022-09-27T16:04:57;13.10;99.90
25628;DHT22;40915;50.826;4.356;2022-09-27T16:07:23;13.20;99.90
25628;DHT22;40915;50.826;4.356;2022-09-27T16:09:48;13.10;99.90
25628;DHT22;40915;50.826;4.356;2022-09-27T16:12:16;13.10;99.90
25628;DHT22;40915;50.826;4.356;2022-09-27T16:14:41;13.10;99.90
25628;DHT22;40915;50.826;4.356;2022-09-27T16:17:08;13.10;99.90
25628;DHT22;40915;50.826;4.356;2022-09-27T16:19:34;13.00;99.90
25628;DHT22;40915;50.826;4.356;2022-09-27T16:22:00;13.10;99.90
25628;DHT22;40915;50.826;4.356;2022-09-27T16:24:28;13.10;99.90
25628;DHT22;40915;50.826;4.356;2022-09-27T16:26:54;13.10;99.90
25628;DHT22;40915;50.826;4.356;2022-09-27T16:29:19;13.00;99.90
25628;DHT22;40915;50.826;4.356;2022-09-27T16:31:46;13.00;99.90
25628;DHT22;40915;50.826;4.356;2022-09-27T16:34:11;12.90;99.90
25628;DHT22;40915;50.826;4.356;2022-09-27T16:36:37;12.90;99.90
25628;DHT22;40915;50.826;4.356;2022-09-27T16:39:05;12.90;99.90
25628;DHT22;40915;50.826;4.356;2022-09-27T16:41:30;12.80;99.90
25628;DHT22;40915;50.826;4.356;2022-09-27T16:43:58;12.80;99.90
25628;DHT22;40915;50.826;4.356;2022-09-27T16:46:23;12.70;99.90
25628;DHT22;40915;50.826;4.356;2022-09-27T16:48:49;12.70;99.90
25628;DHT22;40915;50.826;4.356;2022-09-27T16:51:16;12.70;99.90
25628;DHT22;40915;50.826;4.356;2022-09-27T16:54:01;12.70;99.90
25628;DHT22;40915;50.826;4.356;2022-09-27T16:56:27;12.70;99.90
25628;DHT22;40915;50.826;4.356;2022-09-27T16:58:53;12.70;99.90
25628;DHT22;40915;50.826;4.356;2022-09-27T17:01:19;12.60;99.90
25628;DHT22;40915;50.826;4.356;2022-09-27T17:03:50;12.60;99.90
25628;DHT22;40915;50.826;4.356;2022-09-27T17:06:19;12.60;99.90
25628;DHT22;40915;50.826;4.356;2022-09-27T17:08:45;12.60;99.90
25628;DHT22;40915;50.826;4.356;2022-09-27T17:11:16;12.60;99.90
25628;DHT22;40915;50.826;4.356;2022-09-27T17:13:43;12.60;99.90
25628;DHT22;40915;50.826;4.356;2022-09-27T17:16:10;12.60;99.90
25628;DHT22;40915;50.826;4.356;2022-09-27T17:18:38;12.60;99.90
25628;DHT22;40915;50.826;4.356;2022-09-27T17:21:05;12.60;99.90
25628;DHT22;40915;50.826;4.356;2022-09-27T17:23:31;12.50;99.90
25628;DHT22;40915;50.826;4.356;2022-09-27T17:26:22;12.40;99.90
25628;DHT22;40915;50.826;4.356;2022-09-27T17:28:47;12.40;99.90
25628;DHT22;40915;50.826;4.356;2022-09-27T17:31:16;12.30;99.90
25628;DHT22;40915;50.826;4.356;2022-09-27T17:33:44;12.30;99.90
25628;DHT22;40915;50.826;4.356;2022-09-27T17:36:12;12.30;99.90
25628;DHT22;40915;50.826;4.356;2022-09-27T17:38:38;12.30;99.90
25628;DHT22;40915;50.826;4.356;2022-09-27T17:41:08;12.30;99.90
25628;DHT22;40915;50.826;4.356;2022-09-27T17:43:36;12.30;99.90
25628;DHT22;40915;50.826;4.356;2022-09-27T17:46:05;12.30;99.90
25628;DHT22;40915;50.826;4.356;2022-09-27T17:48:31;12.30;99.90
25628;DHT22;40915;50.826;4.356;2022-09-27T17:51:15;12.30;99.90
25628;DHT22;40915;50.826;4.356;2022-09-27T17:53:41;12.30;99.90
25628;DHT22;40915;50.826;4.356;2022-09-27T17:56:07;12.20;99.90
25628;DHT22;40915;50.826;4.356;2022-09-27T17:58:32;12.10;99.90
25628;DHT22;40915;50.826;4.356;2022-09-27T18:01:02;12.10;99.90
25628;DHT22;40915;50.826;4.356;2022-09-27T18:03:29;12.10;99.90
25628;DHT22;40915;50.826;4.356;2022-09-27T18:05:55;12.00;99.90
25628;DHT22;40915;50.826;4.356;2022-09-27T18:08:22;12.00;99.90
25628;DHT22;40915;50.826;4.356;2022-09-27T18:10:48;11.90;99.90
25628;DHT22;40915;50.826;4.356;2022-09-27T18:13:14;11.90;99.90
25628;DHT22;40915;50.826;4.356;2022-09-27T18:15:40;11.80;99.90
25628;DHT22;40915;50.826;4.356;2022-09-27T18:18:06;11.70;99.90
25628;DHT22;40915;50.826;4.356;2022-09-27T18:20:34;11.60;99.90
25628;DHT22;40915;50.826;4.356;2022-09-27T18:23:00;11.40;99.90
25628;DHT22;40915;50.826;4.356;2022-09-27T18:25:25;11.20;99.90
25628;DHT22;40915;50.826;4.356;2022-09-27T18:27:51;11.10;99.90